sensor_id;sensor_type;location;lat;lon;timestamp;P1;durP1;ratioP1;P2;durP2;ratioP2
16407;SDS011;8313;49.894;8.084;2023-04-25T00:01:17;3.60;;;3.20;;
16407;SDS011;8313;49.894;8.084;2023-04-25T00:03:43;4.63;;;3.77;;
16407;SDS011;8313;49.894;8.084;2023-04-25T00:06:10;4.57;;;3.20;;
16407;SDS011;8313;49.894;8.084;2023-04-25T00:08:36;3.40;;;3.10;;
16407;SDS011;8313;49.894;8.084;2023-04-25T00:11:02;5.23;;;3.90;;
16407;SDS011;8313;49.894;8.084;2023-04-25T00:13:28;4.60;;;3.70;;
16407;SDS011;8313;49.894;8.084;2023-04-25T00:15:54;4.60;;;3.33;;
16407;SDS011;8313;49.894;8.084;2023-04-25T00:18:21;4.60;;;3.20;;
16407;SDS011;8313;49.894;8.084;2023-04-25T00:20:47;4.63;;;3.70;;
16407;SDS011;8313;49.894;8.084;2023-04-25T00:23:13;4.87;;;3.47;;
16407;SDS011;8313;49.894;8.084;2023-04-25T00:25:42;7.93;;;4.27;;
16407;SDS011;8313;49.894;8.084;2023-04-25T00:28:12;3.40;;;3.10;;
16407;SDS011;8313;49.894;8.084;2023-04-25T00:30:38;7.40;;;3.43;;
16407;SDS011;8313;49.894;8.084;2023-04-25T00:33:04;4.17;;;2.93;;
16407;SDS011;8313;49.894;8.084;2023-04-25T00:35:30;5.63;;;3.77;;
16407;SDS011;8313;49.894;8.084;2023-04-25T00:37:56;4.23;;;3.40;;
16407;SDS011;8313;49.894;8.084;2023-04-25T00:40:22;4.57;;;3.87;;
16407;SDS011;8313;49.894;8.084;2023-04-25T00:42:48;4.83;;;3.50;;
16407;SDS011;8313;49.894;8.084;2023-04-25T00:45:14;3.07;;;2.77;;
16407;SDS011;8313;49.894;8.084;2023-04-25T00:47:40;3.20;;;2.80;;
16407;SDS011;8313;49.894;8.084;2023-04-25T00:50:08;5.17;;;3.23;;
16407;SDS011;8313;49.894;8.084;2023-04-25T00:52:34;4.43;;;3.60;;
16407;SDS011;8313;49.894;8.084;2023-04-25T00:55:01;3.40;;;3.00;;
16407;SDS011;8313;49.894;8.084;2023-04-25T00:57:27;6.20;;;3.67;;
16407;SDS011;8313;49.894;8.084;2023-04-25T00:59:53;3.70;;;3.33;;
16407;SDS011;8313;49.894;8.084;2023-04-25T01:02:20;5.10;;;3.23;;
16407;SDS011;8313;49.894;8.084;2023-04-25T01:04:45;3.30;;;3.00;;
16407;SDS011;8313;49.894;8.084;2023-04-25T01:07:12;3.20;;;2.80;;
16407;SDS011;8313;49.894;8.084;2023-04-25T01:09:38;3.50;;;2.90;;
16407;SDS011;8313;49.894;8.084;2023-04-25T01:12:04;2.87;;;2.57;;
16407;SDS011;8313;49.894;8.084;2023-04-25T01:14:30;4.03;;;2.87;;
16407;SDS011;8313;49.894;8.084;2023-04-25T01:16:56;4.07;;;3.23;;
16407;SDS011;8313;49.894;8.084;2023-04-25T01:19:22;3.03;;;2.70;;
16407;SDS011;8313;49.894;8.084;2023-04-25T01:21:48;5.67;;;3.50;;
16407;SDS011;8313;49.894;8.084;2023-04-25T01:24:14;3.50;;;2.80;;
16407;SDS011;8313;49.894;8.084;2023-04-25T01:26:40;3.70;;;2.90;;
16407;SDS011;8313;49.894;8.084;2023-04-25T01:29:10;4.07;;;2.77;;
16407;SDS011;8313;49.894;8.084;2023-04-25T01:31:36;4.63;;;3.10;;
16407;SDS011;8313;49.894;8.084;2023-04-25T01:34:02;3.40;;;2.77;;
16407;SDS011;8313;49.894;8.084;2023-04-25T01:36:28;3.67;;;2.80;;
16407;SDS011;8313;49.894;8.084;2023-04-25T01:38:54;3.60;;;2.90;;
16407;SDS011;8313;49.894;8.084;2023-04-25T01:41:21;6.57;;;3.60;;
16407;SDS011;8313;49.894;8.084;2023-04-25T01:43:48;4.50;;;3.20;;
16407;SDS011;8313;49.894;8.084;2023-04-25T01:46:14;3.00;;;2.70;;
16407;SDS011;8313;49.894;8.084;2023-04-25T01:48:39;3.70;;;2.60;;
16407;SDS011;8313;49.894;8.084;2023-04-25T01:51:05;4.77;;;3.67;;
16407;SDS011;8313;49.894;8.084;2023-04-25T01:53:31;3.67;;;2.93;;
16407;SDS011;8313;49.894;8.084;2023-04-25T01:55:58;3.30;;;2.90;;
16407;SDS011;8313;49.894;8.084;2023-04-25T01:58:28;4.43;;;3.13;;
16407;SDS011;8313;49.894;8.084;2023-04-25T02:01:03;3.63;;;2.90;;
16407;SDS011;8313;49.894;8.084;2023-04-25T02:03:37;4.90;;;3.27;;
16407;SDS011;8313;49.894;8.084;2023-04-25T02:06:06;4.60;;;3.00;;
16407;SDS011;8313;49.894;8.084;2023-04-25T02:08:35;3.67;;;3.10;;
16407;SDS011;8313;49.894;8.084;2023-04-25T02:11:02;2.70;;;2.50;;
16407;SDS011;8313;49.894;8.084;2023-04-25T02:13:35;3.30;;;3.00;;
16407;SDS011;8313;49.894;8.084;2023-04-25T02:16:19;3.17;;;2.87;;
16407;SDS011;8313;49.894;8.084;2023-04-25T02:18:45;3.83;;;3.07;;
16407;SDS011;8313;49.894;8.084;2023-04-25T02:21:11;4.03;;;3.30;;
16407;SDS011;8313;49.894;8.084;2023-04-25T02:23:37;6.30;;;3.17;;
16407;SDS011;8313;49.894;8.084;2023-04-25T02:26:03;3.70;;;2.80;;
16407;SDS011;8313;49.894;8.084;2023-04-25T02:28:29;5.03;;;3.57;;
16407;SDS011;8313;49.894;8.084;2023-04-25T02:30:55;4.43;;;3.20;;
16407;SDS011;8313;49.894;8.084;2023-04-25T02:33:22;4.57;;;3.37;;
16407;SDS011;8313;49.894;8.084;2023-04-25T02:35:48;3.83;;;2.97;;
16407;SDS011;8313;49.894;8.084;2023-04-25T02:38:14;3.57;;;3.27;;
16407;SDS011;8313;49.894;8.084;2023-04-25T02:40:39;4.40;;;3.23;;
16407;SDS011;8313;49.894;8.084;2023-04-25T02:43:05;5.73;;;3.60;;
16407;SDS011;8313;49.894;8.084;2023-04-25T02:45:32;3.63;;;3.13;;
16407;SDS011;8313;49.894;8.084;2023-04-25T02:47:57;4.50;;;3.87;;
16407;SDS011;8313;49.894;8.084;2023-04-25T02:50:23;3.97;;;3.30;;
16407;SDS011;8313;49.894;8.084;2023-04-25T02:52:48;4.27;;;3.03;;
16407;SDS011;8313;49.894;8.084;2023-04-25T02:55:19;4.20;;;3.23;;
16407;SDS011;8313;49.894;8.084;2023-04-25T02:57:45;4.90;;;3.40;;
16407;SDS011;8313;49.894;8.084;2023-04-25T03:00:17;4.70;;;3.20;;
16407;SDS011;8313;49.894;8.084;2023-04-25T03:02:43;4.33;;;3.17;;
16407;SDS011;8313;49.894;8.084;2023-04-25T03:05:09;9.30;;;3.47;;
16407;SDS011;8313;49.894;8.084;2023-04-25T03:07:35;3.90;;;3.10;;
16407;SDS011;8313;49.894;8.084;2023-04-25T03:10:01;3.83;;;3.10;;
16407;SDS011;8313;49.894;8.084;2023-04-25T03:12:29;3.03;;;2.73;;
16407;SDS011;8313;49.894;8.084;2023-04-25T03:14:54;2.60;;;2.40;;
16407;SDS011;8313;49.894;8.084;2023-04-25T03:17:20;3.83;;;2.60;;
16407;SDS011;8313;49.894;8.084;2023-04-25T03:19:48;5.70;;;3.93;;
16407;SDS011;8313;49.894;8.084;2023-04-25T03:22:13;3.37;;;3.07;;
16407;SDS011;8313;49.894;8.084;2023-04-25T03:24:39;3.50;;;3.00;;
16407;SDS011;8313;49.894;8.084;2023-04-25T03:27:05;9.10;;;3.57;;
16407;SDS011;8313;49.894;8.084;2023-04-25T03:29:31;4.23;;;3.13;;
16407;SDS011;8313;49.894;8.084;2023-04-25T03:31:59;4.00;;;3.07;;
16407;SDS011;8313;49.894;8.084;2023-04-25T03:34:25;4.73;;;3.97;;
16407;SDS011;8313;49.894;8.084;2023-04-25T03:36:51;4.50;;;2.97;;
16407;SDS011;8313;49.894;8.084;2023-04-25T03:39:17;5.20;;;3.27;;
16407;SDS011;8313;49.894;8.084;2023-04-25T03:41:46;3.67;;;3.10;;
16407;SDS011;8313;49.894;8.084;2023-04-25T03:44:13;4.43;;;3.67;;
16407;SDS011;8313;49.894;8.084;2023-04-25T03:46:39;3.70;;;3.20;;
16407;SDS011;8313;49.894;8.084;2023-04-25T03:49:05;4.33;;;3.23;;
16407;SDS011;8313;49.894;8.084;2023-04-25T03:51:50;3.70;;;2.70;;
16407;SDS011;8313;49.894;8.084;2023-04-25T03:54:16;4.40;;;3.10;;
16407;SDS011;8313;49.894;8.084;2023-04-25T03:57:00;3.10;;;2.67;;
16407;SDS011;8313;49.894;8.084;2023-04-25T03:59:28;3.50;;;2.90;;
16407;SDS011;8313;49.894;8.084;2023-04-25T04:01:53;4.23;;;3.80;;
16407;SDS011;8313;49.894;8.084;2023-04-25T04:04:20;4.77;;;3.27;;
16407;SDS011;8313;49.894;8.084;2023-04-25T04:06:46;4.60;;;3.20;;
16407;SDS011;8313;49.894;8.084;2023-04-25T04:09:20;4.60;;;3.63;;
16407;SDS011;8313;49.894;8.084;2023-04-25T04:11:46;3.93;;;3.30;;
16407;SDS011;8313;49.894;8.084;2023-04-25T04:14:12;5.10;;;3.53;;
16407;SDS011;8313;49.894;8.084;2023-04-25T04:16:42;5.07;;;3.33;;
16407;SDS011;8313;49.894;8.084;2023-04-25T04:19:08;4.20;;;3.57;;
16407;SDS011;8313;49.894;8.084;2023-04-25T04:21:34;3.97;;;3.57;;
16407;SDS011;8313;49.894;8.084;2023-04-25T04:24:01;5.30;;;3.50;;
16407;SDS011;8313;49.894;8.084;2023-04-25T04:26:32;5.80;;;4.00;;
16407;SDS011;8313;49.894;8.084;2023-04-25T04:29:08;4.90;;;3.80;;
16407;SDS011;8313;49.894;8.084;2023-04-25T04:31:47;5.43;;;3.57;;
16407;SDS011;8313;49.894;8.084;2023-04-25T04:34:13;6.70;;;4.20;;
16407;SDS011;8313;49.894;8.084;2023-04-25T04:36:39;5.30;;;4.03;;
16407;SDS011;8313;49.894;8.084;2023-04-25T04:39:06;7.57;;;4.43;;
16407;SDS011;8313;49.894;8.084;2023-04-25T04:41:36;6.77;;;4.90;;
16407;SDS011;8313;49.894;8.084;2023-04-25T04:44:22;8.50;;;5.40;;
16407;SDS011;8313;49.894;8.084;2023-04-25T04:47:05;9.37;;;4.73;;
16407;SDS011;8313;49.894;8.084;2023-04-25T04:49:49;12.37;;;5.60;;
16407;SDS011;8313;49.894;8.084;2023-04-25T04:52:34;6.40;;;4.50;;
16407;SDS011;8313;49.894;8.084;2023-04-25T04:55:23;10.83;;;4.83;;
16407;SDS011;8313;49.894;8.084;2023-04-25T04:58:00;8.73;;;4.50;;
16407;SDS011;8313;49.894;8.084;2023-04-25T05:00:40;9.80;;;4.20;;
16407;SDS011;8313;49.894;8.084;2023-04-25T05:03:32;7.03;;;4.13;;
16407;SDS011;8313;49.894;8.084;2023-04-25T05:06:24;9.10;;;4.63;;
16407;SDS011;8313;49.894;8.084;2023-04-25T05:09:10;7.73;;;4.03;;
16407;SDS011;8313;49.894;8.084;2023-04-25T05:12:00;6.47;;;4.50;;
16407;SDS011;8313;49.894;8.084;2023-04-25T05:14:45;5.67;;;3.90;;
16407;SDS011;8313;49.894;8.084;2023-04-25T05:17:30;6.27;;;3.97;;
16407;SDS011;8313;49.894;8.084;2023-04-25T05:20:08;6.20;;;3.80;;
16407;SDS011;8313;49.894;8.084;2023-04-25T05:22:53;6.80;;;3.70;;
16407;SDS011;8313;49.894;8.084;2023-04-25T05:25:29;9.40;;;3.70;;
16407;SDS011;8313;49.894;8.084;2023-04-25T05:27:55;5.53;;;3.30;;
16407;SDS011;8313;49.894;8.084;2023-04-25T05:30:36;7.70;;;3.70;;
16407;SDS011;8313;49.894;8.084;2023-04-25T05:33:06;5.60;;;4.13;;
16407;SDS011;8313;49.894;8.084;2023-04-25T05:35:32;5.87;;;4.50;;
16407;SDS011;8313;49.894;8.084;2023-04-25T05:37:57;4.60;;;3.13;;
16407;SDS011;8313;49.894;8.084;2023-04-25T05:40:38;9.70;;;3.57;;
16407;SDS011;8313;49.894;8.084;2023-04-25T05:43:15;8.97;;;3.30;;
16407;SDS011;8313;49.894;8.084;2023-04-25T05:45:47;4.70;;;3.53;;
16407;SDS011;8313;49.894;8.084;2023-04-25T05:48:42;5.40;;;3.40;;
16407;SDS011;8313;49.894;8.084;2023-04-25T05:51:18;7.43;;;4.60;;
16407;SDS011;8313;49.894;8.084;2023-04-25T05:54:08;8.30;;;4.67;;
16407;SDS011;8313;49.894;8.084;2023-04-25T05:56:34;11.27;;;3.20;;
16407;SDS011;8313;49.894;8.084;2023-04-25T05:59:00;6.77;;;3.73;;
16407;SDS011;8313;49.894;8.084;2023-04-25T06:01:26;6.00;;;3.10;;
16407;SDS011;8313;49.894;8.084;2023-04-25T06:03:52;10.83;;;3.47;;
16407;SDS011;8313;49.894;8.084;2023-04-25T06:06:17;4.77;;;3.57;;
16407;SDS011;8313;49.894;8.084;2023-04-25T06:08:43;7.40;;;4.23;;
16407;SDS011;8313;49.894;8.084;2023-04-25T06:11:10;5.60;;;3.67;;
16407;SDS011;8313;49.894;8.084;2023-04-25T06:13:36;5.43;;;4.30;;
16407;SDS011;8313;49.894;8.084;2023-04-25T06:16:02;7.60;;;3.77;;
16407;SDS011;8313;49.894;8.084;2023-04-25T06:18:28;9.97;;;4.07;;
16407;SDS011;8313;49.894;8.084;2023-04-25T06:20:54;4.67;;;3.53;;
16407;SDS011;8313;49.894;8.084;2023-04-25T06:23:21;5.77;;;3.63;;
16407;SDS011;8313;49.894;8.084;2023-04-25T06:25:59;7.97;;;4.00;;
16407;SDS011;8313;49.894;8.084;2023-04-25T06:28:26;9.77;;;3.90;;
16407;SDS011;8313;49.894;8.084;2023-04-25T06:30:52;12.57;;;3.63;;
16407;SDS011;8313;49.894;8.084;2023-04-25T06:33:18;11.63;;;3.30;;
16407;SDS011;8313;49.894;8.084;2023-04-25T06:35:45;3.53;;;3.10;;
16407;SDS011;8313;49.894;8.084;2023-04-25T06:38:13;6.50;;;3.40;;
16407;SDS011;8313;49.894;8.084;2023-04-25T06:40:43;7.57;;;3.70;;
16407;SDS011;8313;49.894;8.084;2023-04-25T06:43:09;6.60;;;3.70;;
16407;SDS011;8313;49.894;8.084;2023-04-25T06:45:53;7.73;;;3.93;;
16407;SDS011;8313;49.894;8.084;2023-04-25T06:48:20;4.50;;;3.70;;
16407;SDS011;8313;49.894;8.084;2023-04-25T06:50:46;5.43;;;4.03;;
16407;SDS011;8313;49.894;8.084;2023-04-25T06:53:12;5.93;;;3.77;;
16407;SDS011;8313;49.894;8.084;2023-04-25T06:55:39;6.23;;;3.67;;
16407;SDS011;8313;49.894;8.084;2023-04-25T06:58:15;8.60;;;3.40;;
16407;SDS011;8313;49.894;8.084;2023-04-25T07:01:01;9.43;;;3.30;;
16407;SDS011;8313;49.894;8.084;2023-04-25T07:03:27;11.37;;;3.60;;
16407;SDS011;8313;49.894;8.084;2023-04-25T07:05:59;10.40;;;3.90;;
16407;SDS011;8313;49.894;8.084;2023-04-25T07:08:25;8.77;;;3.50;;
16407;SDS011;8313;49.894;8.084;2023-04-25T07:10:51;5.77;;;3.67;;
16407;SDS011;8313;49.894;8.084;2023-04-25T07:13:16;9.27;;;3.10;;
16407;SDS011;8313;49.894;8.084;2023-04-25T07:15:43;6.23;;;3.53;;
16407;SDS011;8313;49.894;8.084;2023-04-25T07:18:10;9.47;;;3.50;;
16407;SDS011;8313;49.894;8.084;2023-04-25T07:20:35;8.67;;;3.50;;
16407;SDS011;8313;49.894;8.084;2023-04-25T07:23:01;6.23;;;3.47;;
16407;SDS011;8313;49.894;8.084;2023-04-25T07:25:27;5.37;;;3.60;;
16407;SDS011;8313;49.894;8.084;2023-04-25T07:27:53;6.20;;;3.67;;
16407;SDS011;8313;49.894;8.084;2023-04-25T07:30:20;4.50;;;3.77;;
16407;SDS011;8313;49.894;8.084;2023-04-25T07:32:46;7.10;;;3.77;;
16407;SDS011;8313;49.894;8.084;2023-04-25T07:35:12;7.60;;;4.47;;
16407;SDS011;8313;49.894;8.084;2023-04-25T07:37:38;4.27;;;3.90;;
16407;SDS011;8313;49.894;8.084;2023-04-25T07:40:10;8.93;;;4.00;;
16407;SDS011;8313;49.894;8.084;2023-04-25T07:42:41;7.40;;;4.10;;
16407;SDS011;8313;49.894;8.084;2023-04-25T07:45:07;6.43;;;4.10;;
16407;SDS011;8313;49.894;8.084;2023-04-25T07:47:34;5.83;;;2.80;;
16407;SDS011;8313;49.894;8.084;2023-04-25T07:50:01;5.00;;;3.20;;
16407;SDS011;8313;49.894;8.084;2023-04-25T07:52:29;4.40;;;3.27;;
16407;SDS011;8313;49.894;8.084;2023-04-25T07:55:02;6.00;;;3.00;;
16407;SDS011;8313;49.894;8.084;2023-04-25T07:57:39;5.63;;;3.67;;
16407;SDS011;8313;49.894;8.084;2023-04-25T08:00:06;4.73;;;3.50;;
16407;SDS011;8313;49.894;8.084;2023-04-25T08:02:38;3.33;;;3.03;;
16407;SDS011;8313;49.894;8.084;2023-04-25T08:05:08;5.03;;;3.50;;
16407;SDS011;8313;49.894;8.084;2023-04-25T08:07:38;4.77;;;3.20;;
16407;SDS011;8313;49.894;8.084;2023-04-25T08:10:05;5.97;;;3.70;;
16407;SDS011;8313;49.894;8.084;2023-04-25T08:12:32;5.60;;;2.50;;
16407;SDS011;8313;49.894;8.084;2023-04-25T08:14:58;6.40;;;2.70;;
16407;SDS011;8313;49.894;8.084;2023-04-25T08:17:28;6.20;;;2.33;;
16407;SDS011;8313;49.894;8.084;2023-04-25T08:19:53;3.80;;;2.93;;
16407;SDS011;8313;49.894;8.084;2023-04-25T08:22:25;4.93;;;2.77;;
16407;SDS011;8313;49.894;8.084;2023-04-25T08:24:59;4.47;;;3.13;;
16407;SDS011;8313;49.894;8.084;2023-04-25T08:27:25;4.10;;;2.90;;
16407;SDS011;8313;49.894;8.084;2023-04-25T08:29:51;3.10;;;2.43;;
16407;SDS011;8313;49.894;8.084;2023-04-25T08:32:18;7.07;;;3.17;;
16407;SDS011;8313;49.894;8.084;2023-04-25T08:34:58;2.97;;;2.27;;
16407;SDS011;8313;49.894;8.084;2023-04-25T08:37:24;3.23;;;2.93;;
16407;SDS011;8313;49.894;8.084;2023-04-25T08:39:59;4.63;;;2.70;;
16407;SDS011;8313;49.894;8.084;2023-04-25T08:42:54;4.33;;;3.17;;
16407;SDS011;8313;49.894;8.084;2023-04-25T08:45:22;8.80;;;3.23;;
16407;SDS011;8313;49.894;8.084;2023-04-25T08:47:49;4.27;;;3.00;;
16407;SDS011;8313;49.894;8.084;2023-04-25T08:50:19;5.70;;;3.37;;
16407;SDS011;8313;49.894;8.084;2023-04-25T08:52:47;4.87;;;2.80;;
16407;SDS011;8313;49.894;8.084;2023-04-25T08:55:17;4.07;;;2.50;;
16407;SDS011;8313;49.894;8.084;2023-04-25T08:57:47;6.33;;;2.77;;
16407;SDS011;8313;49.894;8.084;2023-04-25T09:00:13;2.20;;;1.93;;
16407;SDS011;8313;49.894;8.084;2023-04-25T09:02:42;4.20;;;2.50;;
16407;SDS011;8313;49.894;8.084;2023-04-25T09:05:08;4.83;;;2.70;;
16407;SDS011;8313;49.894;8.084;2023-04-25T09:07:37;3.17;;;2.70;;
16407;SDS011;8313;49.894;8.084;2023-04-25T09:10:03;2.93;;;2.60;;
16407;SDS011;8313;49.894;8.084;2023-04-25T09:12:32;5.87;;;3.20;;
16407;SDS011;8313;49.894;8.084;2023-04-25T09:15:01;2.70;;;2.40;;
16407;SDS011;8313;49.894;8.084;2023-04-25T09:18:04;3.40;;;2.90;;
16407;SDS011;8313;49.894;8.084;2023-04-25T09:20:41;3.13;;;2.77;;
16407;SDS011;8313;49.894;8.084;2023-04-25T09:23:08;4.17;;;3.50;;
16407;SDS011;8313;49.894;8.084;2023-04-25T09:25:36;5.53;;;3.37;;
16407;SDS011;8313;49.894;8.084;2023-04-25T09:28:05;3.30;;;2.73;;
16407;SDS011;8313;49.894;8.084;2023-04-25T09:30:33;3.57;;;2.90;;
16407;SDS011;8313;49.894;8.084;2023-04-25T09:33:08;3.00;;;2.70;;
16407;SDS011;8313;49.894;8.084;2023-04-25T09:35:40;6.23;;;2.73;;
16407;SDS011;8313;49.894;8.084;2023-04-25T09:38:13;6.10;;;3.10;;
16407;SDS011;8313;49.894;8.084;2023-04-25T09:40:51;3.83;;;3.00;;
16407;SDS011;8313;49.894;8.084;2023-04-25T09:43:34;6.10;;;3.90;;
16407;SDS011;8313;49.894;8.084;2023-04-25T09:46:00;5.33;;;3.30;;
16407;SDS011;8313;49.894;8.084;2023-04-25T09:48:28;4.70;;;3.73;;
16407;SDS011;8313;49.894;8.084;2023-04-25T09:51:03;3.37;;;2.93;;
16407;SDS011;8313;49.894;8.084;2023-04-25T09:53:34;3.70;;;2.70;;
16407;SDS011;8313;49.894;8.084;2023-04-25T09:56:12;4.23;;;3.40;;
16407;SDS011;8313;49.894;8.084;2023-04-25T09:58:40;5.20;;;3.40;;
16407;SDS011;8313;49.894;8.084;2023-04-25T10:01:07;4.20;;;2.90;;
16407;SDS011;8313;49.894;8.084;2023-04-25T10:03:48;5.63;;;3.53;;
16407;SDS011;8313;49.894;8.084;2023-04-25T10:06:32;4.97;;;3.07;;
16407;SDS011;8313;49.894;8.084;2023-04-25T10:09:00;5.83;;;3.63;;
16407;SDS011;8313;49.894;8.084;2023-04-25T10:11:28;5.27;;;3.53;;
16407;SDS011;8313;49.894;8.084;2023-04-25T10:13:56;4.60;;;3.90;;
16407;SDS011;8313;49.894;8.084;2023-04-25T10:16:21;5.53;;;4.00;;
16407;SDS011;8313;49.894;8.084;2023-04-25T10:18:48;4.90;;;3.80;;
16407;SDS011;8313;49.894;8.084;2023-04-25T10:21:15;6.00;;;4.50;;
16407;SDS011;8313;49.894;8.084;2023-04-25T10:23:41;5.50;;;3.87;;
16407;SDS011;8313;49.894;8.084;2023-04-25T10:26:07;4.83;;;3.63;;
16407;SDS011;8313;49.894;8.084;2023-04-25T10:31:31;5.50;;;4.30;;
16407;SDS011;8313;49.894;8.084;2023-04-25T10:33:57;4.20;;;3.73;;
16407;SDS011;8313;49.894;8.084;2023-04-25T10:36:24;6.27;;;3.87;;
16407;SDS011;8313;49.894;8.084;2023-04-25T10:38:52;5.80;;;3.70;;
16407;SDS011;8313;49.894;8.084;2023-04-25T10:41:19;4.40;;;3.43;;
16407;SDS011;8313;49.894;8.084;2023-04-25T10:43:47;3.80;;;3.40;;
16407;SDS011;8313;49.894;8.084;2023-04-25T10:48:45;6.93;;;4.17;;
16407;SDS011;8313;49.894;8.084;2023-04-25T10:51:19;10.40;;;4.20;;
16407;SDS011;8313;49.894;8.084;2023-04-25T10:56:23;4.90;;;3.80;;
16407;SDS011;8313;49.894;8.084;2023-04-25T10:58:51;6.27;;;3.80;;
16407;SDS011;8313;49.894;8.084;2023-04-25T11:01:27;5.33;;;4.20;;
16407;SDS011;8313;49.894;8.084;2023-04-25T11:04:03;6.27;;;4.43;;
16407;SDS011;8313;49.894;8.084;2023-04-25T11:09:08;9.30;;;4.27;;
16407;SDS011;8313;49.894;8.084;2023-04-25T11:11:38;4.30;;;3.60;;
16407;SDS011;8313;49.894;8.084;2023-04-25T11:14:04;6.70;;;3.60;;
16407;SDS011;8313;49.894;8.084;2023-04-25T11:16:30;4.83;;;3.80;;
16407;SDS011;8313;49.894;8.084;2023-04-25T11:18:57;10.30;;;4.20;;
16407;SDS011;8313;49.894;8.084;2023-04-25T11:21:23;7.60;;;4.33;;
16407;SDS011;8313;49.894;8.084;2023-04-25T11:23:53;5.00;;;3.90;;
16407;SDS011;8313;49.894;8.084;2023-04-25T11:26:19;10.30;;;3.53;;
16407;SDS011;8313;49.894;8.084;2023-04-25T11:28:45;4.43;;;4.03;;
16407;SDS011;8313;49.894;8.084;2023-04-25T11:31:12;6.70;;;4.87;;
16407;SDS011;8313;49.894;8.084;2023-04-25T11:33:38;4.60;;;4.10;;
16407;SDS011;8313;49.894;8.084;2023-04-25T11:36:05;4.73;;;3.40;;
16407;SDS011;8313;49.894;8.084;2023-04-25T11:38:31;5.27;;;3.53;;
16407;SDS011;8313;49.894;8.084;2023-04-25T11:40:57;7.73;;;4.03;;
16407;SDS011;8313;49.894;8.084;2023-04-25T11:43:23;4.63;;;3.30;;
16407;SDS011;8313;49.894;8.084;2023-04-25T11:45:49;4.83;;;3.60;;
16407;SDS011;8313;49.894;8.084;2023-04-25T11:48:18;9.00;;;4.13;;
16407;SDS011;8313;49.894;8.084;2023-04-25T11:50:45;5.87;;;4.37;;
16407;SDS011;8313;49.894;8.084;2023-04-25T11:53:11;9.37;;;4.87;;
16407;SDS011;8313;49.894;8.084;2023-04-25T11:55:37;5.97;;;3.83;;
16407;SDS011;8313;49.894;8.084;2023-04-25T11:58:03;8.03;;;3.80;;
16407;SDS011;8313;49.894;8.084;2023-04-25T12:00:29;6.40;;;4.53;;
16407;SDS011;8313;49.894;8.084;2023-04-25T12:02:56;15.50;;;3.87;;
16407;SDS011;8313;49.894;8.084;2023-04-25T12:05:28;6.50;;;4.40;;
16407;SDS011;8313;49.894;8.084;2023-04-25T12:07:55;9.20;;;4.10;;
16407;SDS011;8313;49.894;8.084;2023-04-25T12:10:23;4.47;;;4.07;;
16407;SDS011;8313;49.894;8.084;2023-04-25T12:12:50;6.13;;;3.70;;
16407;SDS011;8313;49.894;8.084;2023-04-25T12:15:17;6.67;;;4.87;;
16407;SDS011;8313;49.894;8.084;2023-04-25T12:17:45;9.63;;;3.97;;
16407;SDS011;8313;49.894;8.084;2023-04-25T12:20:15;4.60;;;4.20;;
16407;SDS011;8313;49.894;8.084;2023-04-25T12:22:49;5.77;;;4.23;;
16407;SDS011;8313;49.894;8.084;2023-04-25T12:28:19;9.17;;;3.87;;
16407;SDS011;8313;49.894;8.084;2023-04-25T12:33:25;6.73;;;4.03;;
16407;SDS011;8313;49.894;8.084;2023-04-25T12:35:52;4.17;;;3.77;;
16407;SDS011;8313;49.894;8.084;2023-04-25T12:38:22;4.20;;;3.80;;
16407;SDS011;8313;49.894;8.084;2023-04-25T12:40:49;9.27;;;4.50;;
16407;SDS011;8313;49.894;8.084;2023-04-25T12:43:15;4.50;;;4.10;;
16407;SDS011;8313;49.894;8.084;2023-04-25T12:45:41;4.27;;;3.87;;
16407;SDS011;8313;49.894;8.084;2023-04-25T12:48:06;6.93;;;3.90;;
16407;SDS011;8313;49.894;8.084;2023-04-25T12:50:32;4.33;;;3.50;;
16407;SDS011;8313;49.894;8.084;2023-04-25T12:52:58;5.10;;;4.60;;
16407;SDS011;8313;49.894;8.084;2023-04-25T12:55:23;4.03;;;3.73;;
16407;SDS011;8313;49.894;8.084;2023-04-25T12:57:49;4.90;;;3.90;;
16407;SDS011;8313;49.894;8.084;2023-04-25T13:00:15;3.90;;;3.50;;
16407;SDS011;8313;49.894;8.084;2023-04-25T13:02:43;5.10;;;3.50;;
16407;SDS011;8313;49.894;8.084;2023-04-25T13:05:08;6.37;;;3.60;;
16407;SDS011;8313;49.894;8.084;2023-04-25T13:07:34;4.90;;;2.80;;
16407;SDS011;8313;49.894;8.084;2023-04-25T13:10:00;4.97;;;3.30;;
16407;SDS011;8313;49.894;8.084;2023-04-25T13:12:27;3.67;;;2.90;;
16407;SDS011;8313;49.894;8.084;2023-04-25T13:14:53;4.10;;;3.07;;
16407;SDS011;8313;49.894;8.084;2023-04-25T13:17:18;4.60;;;2.90;;
16407;SDS011;8313;49.894;8.084;2023-04-25T13:19:44;3.10;;;2.80;;
16407;SDS011;8313;49.894;8.084;2023-04-25T13:22:10;4.50;;;2.70;;
16407;SDS011;8313;49.894;8.084;2023-04-25T13:24:36;3.47;;;2.87;;
16407;SDS011;8313;49.894;8.084;2023-04-25T13:27:04;2.70;;;2.50;;
16407;SDS011;8313;49.894;8.084;2023-04-25T13:29:37;2.70;;;2.50;;
16407;SDS011;8313;49.894;8.084;2023-04-25T13:32:05;2.87;;;2.67;;
16407;SDS011;8313;49.894;8.084;2023-04-25T13:34:31;3.30;;;2.63;;
16407;SDS011;8313;49.894;8.084;2023-04-25T13:36:57;5.67;;;3.10;;
16407;SDS011;8313;49.894;8.084;2023-04-25T13:39:23;6.87;;;3.23;;
16407;SDS011;8313;49.894;8.084;2023-04-25T13:41:49;2.90;;;2.40;;
16407;SDS011;8313;49.894;8.084;2023-04-25T13:44:15;2.87;;;2.60;;
16407;SDS011;8313;49.894;8.084;2023-04-25T13:46:41;2.60;;;2.33;;
16407;SDS011;8313;49.894;8.084;2023-04-25T13:49:06;5.13;;;4.57;;
16407;SDS011;8313;49.894;8.084;2023-04-25T13:51:32;3.10;;;2.80;;
16407;SDS011;8313;49.894;8.084;2023-04-25T13:53:58;5.93;;;3.10;;
16407;SDS011;8313;49.894;8.084;2023-04-25T13:56:24;3.33;;;2.93;;
16407;SDS011;8313;49.894;8.084;2023-04-25T13:58:50;3.40;;;2.73;;
16407;SDS011;8313;49.894;8.084;2023-04-25T14:01:16;4.10;;;2.37;;
16407;SDS011;8313;49.894;8.084;2023-04-25T14:03:43;3.07;;;2.17;;
16407;SDS011;8313;49.894;8.084;2023-04-25T14:06:09;4.03;;;2.33;;
16407;SDS011;8313;49.894;8.084;2023-04-25T14:08:36;3.80;;;2.20;;
16407;SDS011;8313;49.894;8.084;2023-04-25T14:11:02;2.90;;;2.47;;
16407;SDS011;8313;49.894;8.084;2023-04-25T14:13:28;4.20;;;2.20;;
16407;SDS011;8313;49.894;8.084;2023-04-25T14:15:53;4.47;;;2.27;;
16407;SDS011;8313;49.894;8.084;2023-04-25T14:18:19;3.77;;;2.20;;
16407;SDS011;8313;49.894;8.084;2023-04-25T14:20:45;2.67;;;2.47;;
16407;SDS011;8313;49.894;8.084;2023-04-25T14:23:11;2.40;;;2.13;;
16407;SDS011;8313;49.894;8.084;2023-04-25T14:25:37;2.27;;;2.00;;
16407;SDS011;8313;49.894;8.084;2023-04-25T14:28:03;4.10;;;1.90;;
16407;SDS011;8313;49.894;8.084;2023-04-25T14:30:29;7.77;;;2.80;;
16407;SDS011;8313;49.894;8.084;2023-04-25T14:32:54;2.20;;;2.00;;
16407;SDS011;8313;49.894;8.084;2023-04-25T14:35:20;5.17;;;2.20;;
16407;SDS011;8313;49.894;8.084;2023-04-25T14:37:46;4.13;;;2.30;;
16407;SDS011;8313;49.894;8.084;2023-04-25T14:40:12;3.80;;;2.37;;
16407;SDS011;8313;49.894;8.084;2023-04-25T14:42:40;2.90;;;2.40;;
16407;SDS011;8313;49.894;8.084;2023-04-25T14:45:06;5.30;;;2.30;;
16407;SDS011;8313;49.894;8.084;2023-04-25T14:47:33;3.30;;;2.30;;
16407;SDS011;8313;49.894;8.084;2023-04-25T14:50:00;1.90;;;1.80;;
16407;SDS011;8313;49.894;8.084;2023-04-25T14:52:26;2.20;;;2.00;;
16407;SDS011;8313;49.894;8.084;2023-04-25T14:54:52;3.20;;;2.00;;
16407;SDS011;8313;49.894;8.084;2023-04-25T14:57:18;2.07;;;1.77;;
16407;SDS011;8313;49.894;8.084;2023-04-25T14:59:44;3.20;;;2.20;;
16407;SDS011;8313;49.894;8.084;2023-04-25T15:02:10;4.10;;;2.43;;
16407;SDS011;8313;49.894;8.084;2023-04-25T15:04:36;4.13;;;2.20;;
16407;SDS011;8313;49.894;8.084;2023-04-25T15:07:01;2.90;;;2.20;;
16407;SDS011;8313;49.894;8.084;2023-04-25T15:09:27;3.93;;;2.43;;
16407;SDS011;8313;49.894;8.084;2023-04-25T15:11:53;4.97;;;2.23;;
16407;SDS011;8313;49.894;8.084;2023-04-25T15:14:19;2.07;;;1.87;;
16407;SDS011;8313;49.894;8.084;2023-04-25T15:16:44;2.43;;;2.23;;
16407;SDS011;8313;49.894;8.084;2023-04-25T15:19:10;6.37;;;2.87;;
16407;SDS011;8313;49.894;8.084;2023-04-25T15:21:36;5.10;;;2.80;;
16407;SDS011;8313;49.894;8.084;2023-04-25T15:24:01;4.50;;;2.87;;
16407;SDS011;8313;49.894;8.084;2023-04-25T15:26:27;5.17;;;4.43;;